createdAt,value
2022-10-20T00:02:24.720Z,10.73
2022-10-20T00:04:53.298Z,10.80
2022-10-20T00:07:20.175Z,7.00
2022-10-20T00:09:47.389Z,6.67
2022-10-20T00:12:14.299Z,6.00
2022-10-20T00:14:41.620Z,5.17
2022-10-20T00:17:08.571Z,9.60
2022-10-20T00:19:35.925Z,5.40
2022-10-20T00:22:04.689Z,8.57
2022-10-20T00:24:31.931Z,6.17
2022-10-20T00:26:58.977Z,7.40
2022-10-20T00:29:26.297Z,8.33
2022-10-20T00:31:53.139Z,6.90
2022-10-20T00:34:20.374Z,8.73
2022-10-20T00:36:50.414Z,4.80
2022-10-20T00:39:21.085Z,5.97
2022-10-20T00:41:48.145Z,9.60
2022-10-20T00:44:49.214Z,5.70
2022-10-20T00:47:19.662Z,6.20
2022-10-20T00:49:48.417Z,5.33
2022-10-20T00:52:18.573Z,5.90
2022-10-20T00:54:47.821Z,6.20
2022-10-20T00:57:14.786Z,9.07
2022-10-20T00:59:42.246Z,8.17
2022-10-20T01:02:10.338Z,4.50
2022-10-20T01:04:38.274Z,12.27
2022-10-20T01:07:06.070Z,3.63
2022-10-20T01:09:33.708Z,6.77
2022-10-20T01:12:13.231Z,5.43
2022-10-20T01:14:53.812Z,14.43
2022-10-20T01:17:29.308Z,7.20
2022-10-20T01:20:50.777Z,9.13
2022-10-20T01:23:52.118Z,5.60
2022-10-20T01:26:38.876Z,6.57
2022-10-20T01:29:15.101Z,4.73
2022-10-20T01:31:49.135Z,4.77
2022-10-20T01:34:22.229Z,5.13
2022-10-20T01:36:54.707Z,5.23
2022-10-20T01:39:29.892Z,5.53
2022-10-20T01:42:02.207Z,8.63
2022-10-20T01:44:35.091Z,4.63
2022-10-20T01:47:36.971Z,5.07
2022-10-20T01:50:07.694Z,5.57
2022-10-20T01:52:34.962Z,8.87
2022-10-20T01:55:02.466Z,3.83
2022-10-20T01:57:41.209Z,7.70
2022-10-20T02:00:11.792Z,4.90
2022-10-20T02:03:08.765Z,6.17
2022-10-20T02:05:50.517Z,4.83
2022-10-20T02:08:26.756Z,9.57
2022-10-20T02:10:58.819Z,6.80
2022-10-20T02:13:28.442Z,4.27
2022-10-20T02:16:00.814Z,5.70
2022-10-20T02:18:31.353Z,4.20
2022-10-20T02:21:01.242Z,5.23
2022-10-20T02:23:35.039Z,5.87
2022-10-20T02:26:07.325Z,11.17
2022-10-20T02:28:36.070Z,10.07
2022-10-20T02:31:05.143Z,7.00
2022-10-20T02:33:33.760Z,6.07
2022-10-20T02:36:04.297Z,4.33
2022-10-20T02:38:31.542Z,9.73
2022-10-20T02:40:58.769Z,14.50
2022-10-20T02:43:25.630Z,4.97
2022-10-20T02:45:52.796Z,11.83
2022-10-20T02:48:20.940Z,8.53
2022-10-20T02:50:48.051Z,11.47
2022-10-20T02:53:14.986Z,5.30
2022-10-20T02:55:42.442Z,8.33
2022-10-20T02:58:09.776Z,10.50
2022-10-20T03:00:36.946Z,8.57
2022-10-20T03:03:03.862Z,8.77
2022-10-20T03:05:32.547Z,6.57
2022-10-20T03:07:59.445Z,7.30
2022-10-20T03:10:26.667Z,5.70
2022-10-20T03:12:53.444Z,7.03
2022-10-20T03:15:20.712Z,8.53
2022-10-20T03:17:47.506Z,6.40
2022-10-20T03:20:14.659Z,7.57
2022-10-20T03:22:42.785Z,5.00
2022-10-20T03:25:10.170Z,6.20
2022-10-20T03:27:37.283Z,4.83
2022-10-20T03:30:05.406Z,4.83
2022-10-20T03:32:32.836Z,6.27
2022-10-20T03:35:00.222Z,6.37
2022-10-20T03:37:27.074Z,5.00
2022-10-20T03:39:55.627Z,6.77
2022-10-20T03:42:22.528Z,10.70
2022-10-20T03:44:49.693Z,6.10
2022-10-20T03:47:16.557Z,3.97
2022-10-20T03:49:43.919Z,5.47
2022-10-20T03:52:10.724Z,5.77
2022-10-20T03:54:38.274Z,5.30
2022-10-20T03:57:07.838Z,5.23
2022-10-20T03:59:35.163Z,5.90
2022-10-20T04:02:02.127Z,4.50
2022-10-20T04:04:29.370Z,4.50
2022-10-20T04:06:56.366Z,7.93
2022-10-20T04:09:23.580Z,7.33
2022-10-20T04:11:50.449Z,6.13
2022-10-20T04:14:19.673Z,6.97
2022-10-20T04:16:46.533Z,4.93
2022-10-20T04:19:13.948Z,7.77
2022-10-20T04:21:40.913Z,5.43
2022-10-20T04:24:08.277Z,4.10
2022-10-20T04:26:35.195Z,6.07
2022-10-20T04:29:02.778Z,3.63
2022-10-20T04:31:30.993Z,8.60
2022-10-20T04:33:58.322Z,4.50
2022-10-20T04:36:25.830Z,6.20
2022-10-20T04:38:53.078Z,5.97
2022-10-20T04:41:20.023Z,4.97
2022-10-20T04:43:51.577Z,4.50
2022-10-20T04:46:18.932Z,6.13
2022-10-20T04:48:47.542Z,6.20
2022-10-20T04:51:15.993Z,6.60
2022-10-20T04:53:42.842Z,3.53
2022-10-20T04:56:13.846Z,5.77
2022-10-20T04:58:41.031Z,4.27
2022-10-20T05:01:10.062Z,5.17
2022-10-20T05:03:37.800Z,7.00
2022-10-20T05:06:11.205Z,4.00
2022-10-20T05:08:39.231Z,6.43
2022-10-20T05:11:06.620Z,4.43
2022-10-20T05:13:33.844Z,5.80
2022-10-20T05:16:00.742Z,4.43
2022-10-20T05:18:28.701Z,5.57
2022-10-20T05:21:08.433Z,9.77
2022-10-20T05:23:38.661Z,3.70
2022-10-20T05:26:07.123Z,4.87
2022-10-20T05:28:34.591Z,4.47
2022-10-20T05:31:02.874Z,6.57
2022-10-20T05:33:30.279Z,5.10
2022-10-20T05:35:57.224Z,4.23
2022-10-20T05:38:24.189Z,10.27
2022-10-20T05:40:52.406Z,7.87
2022-10-20T05:43:19.707Z,7.47
2022-10-20T05:45:46.533Z,5.73
2022-10-20T05:48:13.415Z,6.47
2022-10-20T05:50:40.319Z,8.67
2022-10-20T05:53:07.510Z,5.30
2022-10-20T05:55:34.705Z,14.77
2022-10-20T05:58:03.042Z,9.93
2022-10-20T06:00:31.425Z,8.53
2022-10-20T06:02:58.879Z,7.60
2022-10-20T06:05:25.697Z,5.43
2022-10-20T06:07:54.781Z,7.90
2022-10-20T06:10:21.739Z,10.33
2022-10-20T06:12:48.616Z,9.03
2022-10-20T06:15:17.002Z,8.53
2022-10-20T06:17:47.193Z,9.57
2022-10-20T06:20:14.149Z,7.47
2022-10-20T06:22:41.449Z,7.43
2022-10-20T06:25:09.068Z,7.70
2022-10-20T06:27:36.323Z,7.17
2022-10-20T06:30:03.311Z,11.60
2022-10-20T06:32:32.136Z,10.57
2022-10-20T06:34:58.995Z,7.83
2022-10-20T06:37:25.850Z,8.60
2022-10-20T06:39:52.698Z,6.33
2022-10-20T06:42:19.880Z,5.27
2022-10-20T06:44:46.771Z,8.73
2022-10-20T06:47:13.972Z,9.43
2022-10-20T06:49:42.186Z,14.37
2022-10-20T06:54:41.300Z,14.63
2022-10-20T06:57:08.492Z,8.17
2022-10-20T06:59:35.375Z,9.37
2022-10-20T07:02:02.643Z,9.70
2022-10-20T07:04:29.639Z,7.80
2022-10-20T07:06:58.400Z,7.53
2022-10-20T07:09:25.316Z,9.93
2022-10-20T07:11:52.876Z,12.33
2022-10-20T07:14:20.638Z,9.83
2022-10-20T07:16:47.869Z,9.90
2022-10-20T07:19:14.836Z,10.53
2022-10-20T07:21:45.639Z,14.07
2022-10-20T07:24:15.351Z,15.27
2022-10-20T07:26:42.959Z,10.60
2022-10-20T07:29:11.045Z,9.23
2022-10-20T07:31:39.784Z,10.97
2022-10-20T07:34:26.661Z,13.77
2022-10-20T07:36:56.584Z,9.90
2022-10-20T07:39:25.795Z,12.20
2022-10-20T07:41:53.311Z,11.27
2022-10-20T07:44:20.466Z,8.60
2022-10-20T07:46:47.868Z,16.57
2022-10-20T07:52:02.710Z,8.10
2022-10-20T07:54:31.771Z,9.57
2022-10-20T07:56:59.196Z,11.17
2022-10-20T07:59:26.146Z,8.93
2022-10-20T08:01:56.091Z,8.73
2022-10-20T08:04:24.343Z,10.33
2022-10-20T08:06:51.260Z,9.13
2022-10-20T08:09:19.069Z,7.33
2022-10-20T08:11:50.364Z,10.30
2022-10-20T08:14:20.214Z,13.23
2022-10-20T08:16:51.062Z,10.13
2022-10-20T08:21:59.713Z,12.17
2022-10-20T08:24:26.807Z,9.07
2022-10-20T08:26:55.221Z,7.17
2022-10-20T08:29:23.020Z,8.83
2022-10-20T08:31:50.090Z,11.50
2022-10-20T08:34:17.390Z,10.87
2022-10-20T08:36:44.508Z,10.67
2022-10-20T08:39:11.684Z,7.47
2022-10-20T08:42:06.527Z,10.07
2022-10-20T08:44:34.694Z,8.43
2022-10-20T08:47:04.037Z,12.33
2022-10-20T08:49:33.640Z,14.87
2022-10-20T08:52:01.068Z,15.93
2022-10-20T08:54:28.412Z,12.87
2022-10-20T08:56:55.386Z,16.80
2022-10-20T08:59:29.475Z,10.83
2022-10-20T09:01:58.043Z,10.40
2022-10-20T09:04:27.980Z,14.70
2022-10-20T09:07:00.162Z,8.20
2022-10-20T09:09:31.047Z,11.23
2022-10-20T09:12:04.687Z,7.40
2022-10-20T09:14:35.683Z,8.30
2022-10-20T09:17:09.140Z,9.57
2022-10-20T09:19:39.055Z,9.33
2022-10-20T09:22:07.663Z,12.43
2022-10-20T09:24:36.766Z,9.70
2022-10-20T09:27:20.251Z,11.37
2022-10-20T09:29:47.206Z,14.33
2022-10-20T09:32:45.488Z,11.87
2022-10-20T09:35:20.979Z,15.47
2022-10-20T09:38:06.615Z,14.03
2022-10-20T09:40:33.708Z,7.70
2022-10-20T09:43:07.917Z,11.87
2022-10-20T09:45:37.234Z,11.97
2022-10-20T09:48:17.802Z,10.50
2022-10-20T09:50:49.658Z,15.53
2022-10-20T09:53:20.290Z,8.87
2022-10-20T09:55:49.944Z,12.47
2022-10-20T09:58:23.377Z,10.87
2022-10-20T10:00:57.675Z,12.53
2022-10-20T10:03:26.600Z,9.80
2022-10-20T10:05:54.778Z,7.27
2022-10-20T10:08:23.491Z,9.00
2022-10-20T10:11:02.074Z,8.10
2022-10-20T10:13:32.455Z,9.67
2022-10-20T10:16:06.274Z,7.40
2022-10-20T10:18:36.276Z,10.13
2022-10-20T10:21:05.955Z,8.97
2022-10-20T10:23:36.999Z,11.50
2022-10-20T10:26:22.755Z,9.87
2022-10-20T10:28:58.803Z,9.80
2022-10-20T10:31:25.783Z,9.53
2022-10-20T10:34:22.871Z,14.53
2022-10-20T10:36:49.868Z,7.93
2022-10-20T10:39:16.842Z,9.80
2022-10-20T10:42:03.679Z,9.43
2022-10-20T10:44:42.125Z,13.23
2022-10-20T10:47:24.659Z,8.17
2022-10-20T10:50:03.131Z,14.87
2022-10-20T10:52:46.039Z,7.90
2022-10-20T10:55:47.158Z,11.13
2022-10-20T10:58:27.335Z,7.90
2022-10-20T11:01:02.582Z,11.13
2022-10-20T11:03:48.570Z,7.87
2022-10-20T11:06:25.208Z,7.93
2022-10-20T11:09:12.971Z,6.17
2022-10-20T11:11:51.245Z,6.67
2022-10-20T11:14:31.224Z,6.50
2022-10-20T11:17:08.487Z,7.37
2022-10-20T11:20:03.412Z,6.10
2022-10-20T11:22:40.875Z,6.73
2022-10-20T11:25:16.830Z,5.03
2022-10-20T11:27:44.276Z,5.60
2022-10-20T11:30:17.125Z,6.87
2022-10-20T11:32:50.625Z,7.83
2022-10-20T11:35:27.986Z,6.07
2022-10-20T11:38:11.432Z,7.67
2022-10-20T11:40:40.648Z,7.07
2022-10-20T11:43:16.359Z,8.07
2022-10-20T11:45:50.209Z,6.23
2022-10-20T11:48:25.529Z,7.20
2022-10-20T11:51:10.124Z,3.57
2022-10-20T11:53:57.221Z,5.50
2022-10-20T11:56:51.506Z,5.17
2022-10-20T11:59:52.545Z,6.47
2022-10-20T12:02:59.706Z,4.00
2022-10-20T12:05:56.345Z,3.80
2022-10-20T12:08:43.797Z,6.20
2022-10-20T12:11:18.033Z,6.20
2022-10-20T12:13:57.334Z,5.43
2022-10-20T12:17:13.012Z,8.30
2022-10-20T12:19:40.098Z,7.83
2022-10-20T12:22:35.065Z,2.43
2022-10-20T12:25:19.250Z,1.90
2022-10-20T12:28:07.832Z,3.20
2022-10-20T12:30:44.448Z,2.03
2022-10-20T12:33:19.997Z,2.40
2022-10-20T12:36:23.690Z,6.00
2022-10-20T12:38:54.339Z,7.90
2022-10-20T12:41:27.844Z,2.97
2022-10-20T12:43:59.197Z,3.90
2022-10-20T12:46:31.348Z,3.57
2022-10-20T12:49:03.899Z,2.87
2022-10-20T12:51:36.123Z,4.63
2022-10-20T12:54:08.588Z,5.07
2022-10-20T12:56:39.615Z,3.83
2022-10-20T12:59:39.781Z,6.57
2022-10-20T13:02:32.842Z,7.10
2022-10-20T13:05:02.572Z,4.57
2022-10-20T13:08:04.606Z,6.20
2022-10-20T13:10:36.328Z,6.30
2022-10-20T13:13:49.353Z,4.57
2022-10-20T13:16:20.890Z,7.20
2022-10-20T13:18:51.590Z,7.93
2022-10-20T13:21:26.712Z,7.37
2022-10-20T13:24:00.646Z,7.40
2022-10-20T13:26:30.493Z,4.30
2022-10-20T13:28:59.820Z,6.57
2022-10-20T13:31:31.624Z,7.73
2022-10-20T13:34:07.500Z,7.27
2022-10-20T13:36:55.617Z,5.13
2022-10-20T13:39:31.253Z,6.20
2022-10-20T13:42:07.554Z,6.27
2022-10-20T13:44:44.239Z,7.50
2022-10-20T13:47:37.436Z,7.67
2022-10-20T13:50:12.421Z,5.80
2022-10-20T13:52:44.300Z,6.50
2022-10-20T13:55:17.511Z,11.60
2022-10-20T13:57:55.458Z,6.20
2022-10-20T14:00:25.607Z,6.30
2022-10-20T14:02:56.120Z,8.07
2022-10-20T14:05:25.420Z,10.87
2022-10-20T14:07:53.518Z,6.13
2022-10-20T14:10:23.008Z,11.47
2022-10-20T14:12:50.642Z,6.40
2022-10-20T14:15:23.787Z,8.60
2022-10-20T14:17:59.992Z,6.43
2022-10-20T14:20:29.296Z,8.60
2022-10-20T14:22:58.531Z,9.00
2022-10-20T14:25:26.654Z,7.20
2022-10-20T14:27:54.858Z,6.23
2022-10-20T14:30:22.578Z,6.40
2022-10-20T14:32:50.967Z,10.20
2022-10-20T14:35:33.017Z,9.17
2022-10-20T14:38:03.748Z,9.90
2022-10-20T14:40:33.808Z,13.90
2022-10-20T14:43:03.514Z,10.63
2022-10-20T14:48:03.188Z,12.77
2022-10-20T14:50:37.086Z,8.33
2022-10-20T14:53:18.436Z,8.37
2022-10-20T14:55:45.899Z,9.03
2022-10-20T14:58:37.389Z,10.27
2022-10-20T15:01:24.739Z,7.73
2022-10-20T15:04:06.617Z,11.60
2022-10-20T15:06:35.261Z,6.60
2022-10-20T15:09:03.955Z,8.23
2022-10-20T15:11:32.240Z,11.03
2022-10-20T15:14:01.232Z,10.07
2022-10-20T15:16:34.764Z,5.63
2022-10-20T15:19:29.675Z,7.93
2022-10-20T15:22:09.365Z,10.77
2022-10-20T15:24:37.434Z,6.90
2022-10-20T15:27:05.216Z,11.47
2022-10-20T15:29:33.416Z,6.50
2022-10-20T15:32:00.366Z,8.93
2022-10-20T15:34:27.654Z,6.57
2022-10-20T15:36:55.266Z,8.73
2022-10-20T15:39:23.801Z,6.93
2022-10-20T15:41:53.762Z,8.83
2022-10-20T15:44:22.580Z,9.63
2022-10-20T15:46:53.362Z,11.33
2022-10-20T15:49:20.876Z,7.10
2022-10-20T15:51:48.351Z,6.47
2022-10-20T15:54:17.722Z,9.00
2022-10-20T15:56:46.209Z,8.03
2022-10-20T15:59:13.715Z,10.70
2022-10-20T16:01:40.768Z,8.97
2022-10-20T16:04:17.501Z,9.13
2022-10-20T16:06:44.861Z,11.33
2022-10-20T16:09:15.795Z,10.17
2022-10-20T16:11:44.942Z,9.87
2022-10-20T16:14:12.316Z,8.03
2022-10-20T16:16:39.542Z,11.27
2022-10-20T16:19:06.724Z,9.13
2022-10-20T16:21:33.980Z,7.53
2022-10-20T16:24:04.256Z,9.40
2022-10-20T16:26:31.233Z,8.83
2022-10-20T16:28:59.978Z,10.90
2022-10-20T16:31:26.938Z,10.63
2022-10-20T16:33:54.323Z,8.47
2022-10-20T16:36:21.786Z,7.20
2022-10-20T16:38:54.191Z,6.57
2022-10-20T16:41:21.156Z,10.80
2022-10-20T16:43:48.493Z,9.77
2022-10-20T16:46:16.811Z,10.50
2022-10-20T16:48:47.549Z,9.47
2022-10-20T16:51:18.015Z,9.07
2022-10-20T16:53:45.449Z,7.27
2022-10-20T16:56:15.396Z,9.93
2022-10-20T16:58:45.363Z,9.37
2022-10-20T17:01:15.736Z,12.67
2022-10-20T17:03:46.392Z,8.73
2022-10-20T17:06:14.594Z,12.00
2022-10-20T17:08:41.651Z,9.97
2022-10-20T17:11:10.682Z,25.77
2022-10-20T17:13:39.457Z,13.47
2022-10-20T17:16:08.414Z,8.03
2022-10-20T17:18:36.216Z,10.57
2022-10-20T17:21:05.020Z,10.67
2022-10-20T17:23:36.259Z,27.57
2022-10-20T17:26:07.229Z,10.33
2022-10-20T17:28:36.631Z,11.60
2022-10-20T17:31:06.743Z,9.50
2022-10-20T17:33:33.899Z,8.07
2022-10-20T17:36:01.411Z,10.27
2022-10-20T17:38:30.274Z,7.87
2022-10-20T17:41:02.816Z,13.33
2022-10-20T17:43:29.874Z,10.10
2022-10-20T17:45:57.372Z,11.20
2022-10-20T17:48:24.478Z,12.67
2022-10-20T17:50:59.355Z,12.57
2022-10-20T17:53:26.376Z,20.50
2022-10-20T17:55:54.770Z,10.17
2022-10-20T17:58:21.988Z,18.20
2022-10-20T18:00:56.502Z,11.10
2022-10-20T18:03:24.416Z,10.60
2022-10-20T18:05:51.420Z,10.53
2022-10-20T18:08:18.674Z,13.47
2022-10-20T18:10:45.550Z,13.93
2022-10-20T18:13:14.226Z,11.37
2022-10-20T18:15:44.260Z,14.67
2022-10-20T18:18:11.558Z,14.77
2022-10-20T18:20:38.466Z,17.13
2022-10-20T18:23:05.707Z,13.30
2022-10-20T18:25:34.975Z,14.83
2022-10-20T18:28:02.312Z,13.43
2022-10-20T18:30:30.487Z,16.60
2022-10-20T18:32:57.672Z,17.77
2022-10-20T18:35:24.753Z,15.67
2022-10-20T18:37:57.741Z,18.37
2022-10-20T18:40:24.815Z,18.23
2022-10-20T18:42:51.966Z,18.33
2022-10-20T18:45:21.359Z,14.43
2022-10-20T18:47:52.059Z,17.23
2022-10-20T18:50:19.087Z,19.77
2022-10-20T18:52:45.885Z,21.80
2022-10-20T18:55:13.260Z,18.70
2022-10-20T18:57:40.303Z,19.80
2022-10-20T19:00:09.102Z,22.93
2022-10-20T19:02:36.246Z,18.23
2022-10-20T19:05:05.284Z,22.40
2022-10-20T19:07:32.953Z,20.23
2022-10-20T19:10:01.048Z,28.37
2022-10-20T19:12:28.063Z,23.93
2022-10-20T19:14:54.919Z,24.13
2022-10-20T19:17:21.868Z,21.57
2022-10-20T19:19:48.873Z,17.80
2022-10-20T19:22:17.411Z,17.23
2022-10-20T19:24:44.423Z,14.87
2022-10-20T19:27:26.221Z,16.50
2022-10-20T19:29:56.166Z,13.33
2022-10-20T19:32:23.101Z,10.77
2022-10-20T19:34:50.452Z,17.97
2022-10-20T19:37:18.779Z,14.20
2022-10-20T19:39:45.916Z,16.53
2022-10-20T19:42:13.650Z,14.10
2022-10-20T19:44:40.914Z,17.73
2022-10-20T19:47:08.248Z,14.07
2022-10-20T19:49:35.615Z,18.00
2022-10-20T19:52:03.126Z,18.80
2022-10-20T19:54:31.866Z,14.43
2022-10-20T19:56:59.009Z,17.57
2022-10-20T19:59:26.295Z,12.47
2022-10-20T20:01:53.191Z,15.43
2022-10-20T20:04:20.728Z,16.93
2022-10-20T20:06:48.052Z,14.83
2022-10-20T20:09:17.912Z,14.93
2022-10-20T20:11:46.197Z,12.47
2022-10-20T20:14:15.499Z,12.07
2022-10-20T20:19:16.752Z,18.20
2022-10-20T20:21:44.080Z,18.07
2022-10-20T20:24:13.600Z,27.43
2022-10-20T20:26:40.738Z,15.13
2022-10-20T20:29:09.878Z,17.70
2022-10-20T20:31:36.815Z,17.57
2022-10-20T20:34:03.741Z,16.93
2022-10-20T20:36:30.667Z,13.23
2022-10-20T20:38:59.468Z,16.83
2022-10-20T20:41:28.088Z,17.93
2022-10-20T20:43:55.576Z,18.23
2022-10-20T20:46:27.480Z,17.07
2022-10-20T20:48:54.712Z,15.43
2022-10-20T20:51:21.645Z,13.93
2022-10-20T20:53:48.642Z,20.40
2022-10-20T20:56:19.587Z,17.20
2022-10-20T20:58:49.284Z,15.47
2022-10-20T21:01:18.174Z,15.37
2022-10-20T21:03:47.012Z,13.37
2022-10-20T21:06:15.772Z,14.87
2022-10-20T21:08:44.643Z,14.73
2022-10-20T21:11:13.564Z,17.07
2022-10-20T21:13:41.937Z,12.10
2022-10-20T21:16:11.203Z,15.40
2022-10-20T21:18:38.464Z,16.37
2022-10-20T21:21:13.049Z,14.23
2022-10-20T21:23:40.454Z,16.73
2022-10-20T21:26:08.309Z,13.40
2022-10-20T21:28:35.805Z,13.97
2022-10-20T21:31:04.734Z,14.53
2022-10-20T21:33:31.697Z,13.20
2022-10-20T21:36:01.975Z,13.63
2022-10-20T21:38:31.955Z,15.20
2022-10-20T21:41:03.512Z,15.83
2022-10-20T21:43:31.195Z,16.87
2022-10-20T21:46:12.177Z,13.97
2022-10-20T21:48:39.869Z,15.87
2022-10-20T21:51:09.357Z,12.30
2022-10-20T21:53:37.901Z,12.13
2022-10-20T21:56:05.611Z,19.53
2022-10-20T21:58:33.429Z,14.53
2022-10-20T22:01:00.924Z,19.20
2022-10-20T22:03:27.903Z,13.37
2022-10-20T22:05:54.948Z,13.77
2022-10-20T22:08:21.818Z,16.87
2022-10-20T22:10:50.081Z,15.57
2022-10-20T22:13:16.946Z,14.47
2022-10-20T22:15:44.208Z,19.47
2022-10-20T22:18:11.032Z,29.40
2022-10-20T22:20:38.723Z,23.90
2022-10-20T22:23:08.667Z,15.30
2022-10-20T22:25:37.703Z,16.47
2022-10-20T22:28:06.455Z,12.47
2022-10-20T22:30:34.378Z,14.30
2022-10-20T22:33:01.483Z,16.30
2022-10-20T22:35:28.964Z,17.60
2022-10-20T22:37:55.978Z,14.57
2022-10-20T22:40:23.328Z,12.80
2022-10-20T22:42:50.310Z,13.43
2022-10-20T22:45:18.737Z,14.97
2022-10-20T22:47:45.615Z,13.97
2022-10-20T22:50:13.201Z,15.67
2022-10-20T22:52:40.341Z,15.10
2022-10-20T22:55:08.211Z,13.33
2022-10-20T22:57:35.361Z,16.27
2022-10-20T23:00:02.372Z,14.17
2022-10-20T23:02:30.513Z,19.47
2022-10-20T23:04:57.517Z,15.67
2022-10-20T23:07:24.414Z,19.27
2022-10-20T23:09:51.474Z,15.13
2022-10-20T23:12:18.381Z,13.37
2022-10-20T23:14:45.365Z,14.63
2022-10-20T23:17:12.259Z,12.70
2022-10-20T23:19:40.860Z,14.53
2022-10-20T23:22:07.903Z,16.17
2022-10-20T23:24:35.520Z,15.10
2022-10-20T23:27:02.460Z,14.33
2022-10-20T23:29:29.458Z,20.63
2022-10-20T23:31:56.407Z,18.37
2022-10-20T23:34:24.164Z,18.97
2022-10-20T23:36:52.447Z,22.30
2022-10-20T23:39:19.308Z,18.63
2022-10-20T23:41:46.247Z,15.83
2022-10-20T23:44:13.669Z,18.87
2022-10-20T23:46:40.657Z,17.13
2022-10-20T23:49:07.923Z,17.30
2022-10-20T23:51:34.821Z,19.90
2022-10-20T23:54:03.539Z,18.07
2022-10-20T23:56:30.502Z,17.43
2022-10-20T23:58:57.688Z,16.13
